sensor_id;sensor_type;location;lat;lon;timestamp;P1;durP1;ratioP1;P2;durP2;ratioP2
46086;SDS011;31824;49.648;8.640;2023-04-25T00:00:05;5.40;;;1.15;;
46086;SDS011;31824;49.648;8.640;2023-04-25T00:03:12;1.88;;;1.00;;
46086;SDS011;31824;49.648;8.640;2023-04-25T00:06:15;2.20;;;1.10;;
46086;SDS011;31824;49.648;8.640;2023-04-25T00:09:18;3.38;;;1.30;;
46086;SDS011;31824;49.648;8.640;2023-04-25T00:12:20;2.60;;;1.20;;
46086;SDS011;31824;49.648;8.640;2023-04-25T00:15:24;2.15;;;1.10;;
46086;SDS011;31824;49.648;8.640;2023-04-25T00:18:26;2.72;;;1.42;;
46086;SDS011;31824;49.648;8.640;2023-04-25T00:21:31;3.80;;;1.25;;
46086;SDS011;31824;49.648;8.640;2023-04-25T00:24:34;2.63;;;1.10;;
46086;SDS011;31824;49.648;8.640;2023-04-25T00:27:36;3.00;;;1.33;;
46086;SDS011;31824;49.648;8.640;2023-04-25T00:30:38;2.28;;;1.02;;
46086;SDS011;31824;49.648;8.640;2023-04-25T00:33:40;2.90;;;1.40;;
46086;SDS011;31824;49.648;8.640;2023-04-25T00:36:42;2.50;;;1.15;;
46086;SDS011;31824;49.648;8.640;2023-04-25T00:39:45;2.97;;;1.52;;
46086;SDS011;31824;49.648;8.640;2023-04-25T00:42:47;3.10;;;1.42;;
46086;SDS011;31824;49.648;8.640;2023-04-25T00:45:50;3.47;;;1.38;;
46086;SDS011;31824;49.648;8.640;2023-04-25T00:48:53;3.97;;;1.65;;
46086;SDS011;31824;49.648;8.640;2023-04-25T00:51:55;4.05;;;1.33;;
46086;SDS011;31824;49.648;8.640;2023-04-25T00:54:59;3.22;;;1.25;;
46086;SDS011;31824;49.648;8.640;2023-04-25T00:58:01;3.17;;;1.50;;
46086;SDS011;31824;49.648;8.640;2023-04-25T01:01:03;3.50;;;1.58;;
46086;SDS011;31824;49.648;8.640;2023-04-25T01:04:05;3.35;;;1.67;;
46086;SDS011;31824;49.648;8.640;2023-04-25T01:07:09;3.33;;;1.50;;
46086;SDS011;31824;49.648;8.640;2023-04-25T01:10:12;3.42;;;1.25;;
46086;SDS011;31824;49.648;8.640;2023-04-25T01:13:14;3.25;;;1.20;;
46086;SDS011;31824;49.648;8.640;2023-04-25T01:16:16;6.57;;;1.73;;
46086;SDS011;31824;49.648;8.640;2023-04-25T01:19:18;3.00;;;1.55;;
46086;SDS011;31824;49.648;8.640;2023-04-25T01:22:22;4.38;;;1.70;;
46086;SDS011;31824;49.648;8.640;2023-04-25T01:25:25;2.60;;;1.30;;
46086;SDS011;31824;49.648;8.640;2023-04-25T01:28:27;4.40;;;1.73;;
46086;SDS011;31824;49.648;8.640;2023-04-25T01:31:30;2.63;;;1.42;;
46086;SDS011;31824;49.648;8.640;2023-04-25T01:36:19;3.55;;;1.45;;
46086;SDS011;31824;49.648;8.640;2023-04-25T01:39:21;3.90;;;1.67;;
46086;SDS011;31824;49.648;8.640;2023-04-25T01:42:23;4.28;;;1.42;;
46086;SDS011;31824;49.648;8.640;2023-04-25T01:45:25;3.28;;;1.60;;
46086;SDS011;31824;49.648;8.640;2023-04-25T01:48:27;4.35;;;1.65;;
46086;SDS011;31824;49.648;8.640;2023-04-25T01:51:31;3.30;;;1.60;;
46086;SDS011;31824;49.648;8.640;2023-04-25T01:54:33;4.70;;;1.58;;
46086;SDS011;31824;49.648;8.640;2023-04-25T01:57:35;2.90;;;1.45;;
46086;SDS011;31824;49.648;8.640;2023-04-25T02:00:37;4.63;;;1.83;;
46086;SDS011;31824;49.648;8.640;2023-04-25T02:03:40;4.18;;;1.58;;
46086;SDS011;31824;49.648;8.640;2023-04-25T02:06:52;4.65;;;1.95;;
46086;SDS011;31824;49.648;8.640;2023-04-25T02:09:55;4.70;;;1.80;;
46086;SDS011;31824;49.648;8.640;2023-04-25T02:12:57;4.13;;;2.05;;
46086;SDS011;31824;49.648;8.640;2023-04-25T02:16:18;5.38;;;2.00;;
46086;SDS011;31824;49.648;8.640;2023-04-25T02:19:20;3.42;;;1.33;;
46086;SDS011;31824;49.648;8.640;2023-04-25T02:22:23;6.97;;;1.98;;
46086;SDS011;31824;49.648;8.640;2023-04-25T02:25:25;5.38;;;2.05;;
46086;SDS011;31824;49.648;8.640;2023-04-25T02:28:27;3.88;;;2.08;;
46086;SDS011;31824;49.648;8.640;2023-04-25T02:31:29;4.05;;;2.00;;
46086;SDS011;31824;49.648;8.640;2023-04-25T02:34:32;5.05;;;1.77;;
46086;SDS011;31824;49.648;8.640;2023-04-25T02:37:36;4.43;;;1.95;;
46086;SDS011;31824;49.648;8.640;2023-04-25T02:40:40;5.63;;;2.47;;
46086;SDS011;31824;49.648;8.640;2023-04-25T02:43:42;3.75;;;1.83;;
46086;SDS011;31824;49.648;8.640;2023-04-25T02:47:03;3.63;;;1.92;;
46086;SDS011;31824;49.648;8.640;2023-04-25T02:50:05;6.57;;;2.22;;
46086;SDS011;31824;49.648;8.640;2023-04-25T02:53:09;4.13;;;2.28;;
46086;SDS011;31824;49.648;8.640;2023-04-25T02:56:18;5.75;;;2.13;;
46086;SDS011;31824;49.648;8.640;2023-04-25T02:59:20;5.40;;;2.42;;
46086;SDS011;31824;49.648;8.640;2023-04-25T03:02:21;5.00;;;2.30;;
46086;SDS011;31824;49.648;8.640;2023-04-25T03:05:23;3.85;;;1.95;;
46086;SDS011;31824;49.648;8.640;2023-04-25T03:08:26;6.72;;;2.50;;
46086;SDS011;31824;49.648;8.640;2023-04-25T03:11:34;4.88;;;2.10;;
46086;SDS011;31824;49.648;8.640;2023-04-25T03:14:39;5.13;;;2.20;;
46086;SDS011;31824;49.648;8.640;2023-04-25T03:17:40;8.30;;;2.30;;
46086;SDS011;31824;49.648;8.640;2023-04-25T03:20:42;5.10;;;2.55;;
46086;SDS011;31824;49.648;8.640;2023-04-25T03:23:46;4.18;;;2.08;;
46086;SDS011;31824;49.648;8.640;2023-04-25T03:26:48;4.55;;;2.63;;
46086;SDS011;31824;49.648;8.640;2023-04-25T03:29:49;4.78;;;2.45;;
46086;SDS011;31824;49.648;8.640;2023-04-25T03:32:51;4.72;;;2.25;;
46086;SDS011;31824;49.648;8.640;2023-04-25T03:35:53;4.93;;;2.38;;
46086;SDS011;31824;49.648;8.640;2023-04-25T03:38:56;5.82;;;2.10;;
46086;SDS011;31824;49.648;8.640;2023-04-25T03:41:58;6.15;;;2.50;;
46086;SDS011;31824;49.648;8.640;2023-04-25T03:45:02;5.38;;;2.38;;
46086;SDS011;31824;49.648;8.640;2023-04-25T03:48:05;4.22;;;2.22;;
46086;SDS011;31824;49.648;8.640;2023-04-25T03:51:07;4.53;;;2.22;;
46086;SDS011;31824;49.648;8.640;2023-04-25T03:54:14;4.40;;;2.17;;
46086;SDS011;31824;49.648;8.640;2023-04-25T03:57:27;5.07;;;2.28;;
46086;SDS011;31824;49.648;8.640;2023-04-25T04:00:30;5.97;;;2.30;;
46086;SDS011;31824;49.648;8.640;2023-04-25T04:03:31;4.30;;;1.92;;
46086;SDS011;31824;49.648;8.640;2023-04-25T04:06:33;5.75;;;2.50;;
46086;SDS011;31824;49.648;8.640;2023-04-25T04:09:43;5.70;;;2.63;;
46086;SDS011;31824;49.648;8.640;2023-04-25T04:12:51;3.55;;;2.13;;
46086;SDS011;31824;49.648;8.640;2023-04-25T04:15:53;4.55;;;2.38;;
46086;SDS011;31824;49.648;8.640;2023-04-25T04:18:55;6.13;;;2.90;;
46086;SDS011;31824;49.648;8.640;2023-04-25T04:21:58;4.90;;;2.65;;
46086;SDS011;31824;49.648;8.640;2023-04-25T04:25:01;5.00;;;2.53;;
46086;SDS011;31824;49.648;8.640;2023-04-25T04:28:24;5.97;;;2.60;;
46086;SDS011;31824;49.648;8.640;2023-04-25T04:31:35;6.10;;;3.22;;
46086;SDS011;31824;49.648;8.640;2023-04-25T04:34:38;7.55;;;3.40;;
46086;SDS011;31824;49.648;8.640;2023-04-25T04:37:41;5.63;;;2.67;;
46086;SDS011;31824;49.648;8.640;2023-04-25T04:40:46;5.55;;;2.60;;
46086;SDS011;31824;49.648;8.640;2023-04-25T04:43:59;6.45;;;3.28;;
46086;SDS011;31824;49.648;8.640;2023-04-25T04:47:09;5.25;;;2.78;;
46086;SDS011;31824;49.648;8.640;2023-04-25T04:50:44;6.53;;;3.10;;
46086;SDS011;31824;49.648;8.640;2023-04-25T04:53:56;7.00;;;3.10;;
46086;SDS011;31824;49.648;8.640;2023-04-25T04:57:14;9.50;;;3.17;;
46086;SDS011;31824;49.648;8.640;2023-04-25T05:00:35;5.70;;;2.85;;
46086;SDS011;31824;49.648;8.640;2023-04-25T05:03:55;5.63;;;2.70;;
46086;SDS011;31824;49.648;8.640;2023-04-25T05:07:29;6.07;;;3.28;;
46086;SDS011;31824;49.648;8.640;2023-04-25T05:10:52;6.15;;;3.25;;
46086;SDS011;31824;49.648;8.640;2023-04-25T05:14:24;5.53;;;3.10;;
46086;SDS011;31824;49.648;8.640;2023-04-25T05:17:41;7.88;;;3.25;;
46086;SDS011;31824;49.648;8.640;2023-04-25T05:21:05;6.25;;;3.00;;
46086;SDS011;31824;49.648;8.640;2023-04-25T05:24:22;7.95;;;3.40;;
46086;SDS011;31824;49.648;8.640;2023-04-25T05:27:43;7.22;;;3.38;;
46086;SDS011;31824;49.648;8.640;2023-04-25T05:30:58;9.35;;;3.88;;
46086;SDS011;31824;49.648;8.640;2023-04-25T05:34:03;11.40;;;5.28;;
46086;SDS011;31824;49.648;8.640;2023-04-25T05:37:18;9.88;;;3.72;;
46086;SDS011;31824;49.648;8.640;2023-04-25T05:40:28;5.95;;;3.30;;
46086;SDS011;31824;49.648;8.640;2023-04-25T05:43:46;9.05;;;3.55;;
46086;SDS011;31824;49.648;8.640;2023-04-25T05:46:59;5.53;;;2.78;;
46086;SDS011;31824;49.648;8.640;2023-04-25T05:50:16;6.32;;;2.90;;
46086;SDS011;31824;49.648;8.640;2023-04-25T05:53:38;6.70;;;2.55;;
46086;SDS011;31824;49.648;8.640;2023-04-25T05:56:40;5.35;;;2.88;;
46086;SDS011;31824;49.648;8.640;2023-04-25T05:59:42;5.97;;;2.58;;
46086;SDS011;31824;49.648;8.640;2023-04-25T06:02:45;5.90;;;3.00;;
46086;SDS011;31824;49.648;8.640;2023-04-25T06:05:49;3.97;;;1.60;;
46086;SDS011;31824;49.648;8.640;2023-04-25T06:08:53;4.07;;;2.30;;
46086;SDS011;31824;49.648;8.640;2023-04-25T06:11:56;6.97;;;2.90;;
46086;SDS011;31824;49.648;8.640;2023-04-25T06:14:57;4.22;;;2.10;;
46086;SDS011;31824;49.648;8.640;2023-04-25T06:18:01;3.88;;;2.03;;
46086;SDS011;31824;49.648;8.640;2023-04-25T06:21:03;5.97;;;2.30;;
46086;SDS011;31824;49.648;8.640;2023-04-25T06:24:06;11.35;;;2.72;;
46086;SDS011;31824;49.648;8.640;2023-04-25T06:27:08;7.40;;;2.75;;
46086;SDS011;31824;49.648;8.640;2023-04-25T06:30:10;4.65;;;2.25;;
46086;SDS011;31824;49.648;8.640;2023-04-25T06:36:09;5.28;;;2.40;;
46086;SDS011;31824;49.648;8.640;2023-04-25T06:39:12;4.20;;;1.70;;
46086;SDS011;31824;49.648;8.640;2023-04-25T06:42:14;7.50;;;2.15;;
46086;SDS011;31824;49.648;8.640;2023-04-25T06:45:25;4.10;;;1.05;;
46086;SDS011;31824;49.648;8.640;2023-04-25T06:48:27;4.72;;;2.22;;
46086;SDS011;31824;49.648;8.640;2023-04-25T06:51:31;6.45;;;1.65;;
46086;SDS011;31824;49.648;8.640;2023-04-25T06:54:32;7.30;;;2.10;;
46086;SDS011;31824;49.648;8.640;2023-04-25T06:57:41;5.07;;;1.88;;
46086;SDS011;31824;49.648;8.640;2023-04-25T07:01:03;6.45;;;1.90;;
46086;SDS011;31824;49.648;8.640;2023-04-25T07:04:05;5.68;;;1.85;;
46086;SDS011;31824;49.648;8.640;2023-04-25T07:07:13;10.60;;;2.33;;
46086;SDS011;31824;49.648;8.640;2023-04-25T07:10:24;7.13;;;2.28;;
46086;SDS011;31824;49.648;8.640;2023-04-25T07:13:27;8.20;;;2.25;;
46086;SDS011;31824;49.648;8.640;2023-04-25T07:16:29;5.88;;;2.13;;
46086;SDS011;31824;49.648;8.640;2023-04-25T07:19:32;6.95;;;2.60;;
46086;SDS011;31824;49.648;8.640;2023-04-25T07:22:54;8.25;;;2.15;;
46086;SDS011;31824;49.648;8.640;2023-04-25T07:25:57;5.35;;;2.33;;
46086;SDS011;31824;49.648;8.640;2023-04-25T07:29:00;5.25;;;1.80;;
46086;SDS011;31824;49.648;8.640;2023-04-25T07:32:02;4.97;;;2.10;;
46086;SDS011;31824;49.648;8.640;2023-04-25T07:35:04;8.93;;;2.20;;
46086;SDS011;31824;49.648;8.640;2023-04-25T07:38:09;4.78;;;2.33;;
46086;SDS011;31824;49.648;8.640;2023-04-25T07:41:12;5.85;;;1.77;;
46086;SDS011;31824;49.648;8.640;2023-04-25T07:44:15;4.15;;;1.80;;
46086;SDS011;31824;49.648;8.640;2023-04-25T07:47:17;4.57;;;1.65;;
46086;SDS011;31824;49.648;8.640;2023-04-25T07:50:22;3.33;;;1.73;;
46086;SDS011;31824;49.648;8.640;2023-04-25T07:53:25;3.08;;;1.25;;
46086;SDS011;31824;49.648;8.640;2023-04-25T07:56:32;3.42;;;1.27;;
46086;SDS011;31824;49.648;8.640;2023-04-25T07:59:52;4.32;;;1.80;;
46086;SDS011;31824;49.648;8.640;2023-04-25T08:02:55;4.15;;;2.13;;
46086;SDS011;31824;49.648;8.640;2023-04-25T08:05:57;6.88;;;2.08;;
46086;SDS011;31824;49.648;8.640;2023-04-25T08:09:03;6.47;;;1.75;;
46086;SDS011;31824;49.648;8.640;2023-04-25T08:12:12;4.53;;;1.50;;
46086;SDS011;31824;49.648;8.640;2023-04-25T08:15:14;5.97;;;1.90;;
46086;SDS011;31824;49.648;8.640;2023-04-25T08:18:17;5.35;;;2.00;;
46086;SDS011;31824;49.648;8.640;2023-04-25T08:21:21;3.70;;;1.60;;
46086;SDS011;31824;49.648;8.640;2023-04-25T08:24:24;6.20;;;1.75;;
46086;SDS011;31824;49.648;8.640;2023-04-25T08:27:27;6.45;;;1.80;;
46086;SDS011;31824;49.648;8.640;2023-04-25T08:30:30;5.45;;;1.70;;
46086;SDS011;31824;49.648;8.640;2023-04-25T08:33:32;6.57;;;2.10;;
46086;SDS011;31824;49.648;8.640;2023-04-25T08:36:47;5.40;;;1.67;;
46086;SDS011;31824;49.648;8.640;2023-04-25T08:40:16;5.20;;;2.10;;
46086;SDS011;31824;49.648;8.640;2023-04-25T08:43:51;3.83;;;1.40;;
46086;SDS011;31824;49.648;8.640;2023-04-25T08:46:53;4.18;;;1.85;;
46086;SDS011;31824;49.648;8.640;2023-04-25T08:50:03;6.90;;;1.80;;
46086;SDS011;31824;49.648;8.640;2023-04-25T08:53:08;5.22;;;1.40;;
46086;SDS011;31824;49.648;8.640;2023-04-25T08:56:13;3.72;;;1.42;;
46086;SDS011;31824;49.648;8.640;2023-04-25T08:59:19;2.45;;;1.25;;
46086;SDS011;31824;49.648;8.640;2023-04-25T09:02:21;6.82;;;1.85;;
46086;SDS011;31824;49.648;8.640;2023-04-25T09:05:25;4.22;;;1.52;;
46086;SDS011;31824;49.648;8.640;2023-04-25T09:08:27;4.80;;;1.70;;
46086;SDS011;31824;49.648;8.640;2023-04-25T09:11:31;5.32;;;1.20;;
46086;SDS011;31824;49.648;8.640;2023-04-25T09:14:36;5.43;;;1.52;;
46086;SDS011;31824;49.648;8.640;2023-04-25T09:17:54;3.53;;;1.40;;
46086;SDS011;31824;49.648;8.640;2023-04-25T09:20:58;3.72;;;1.42;;
46086;SDS011;31824;49.648;8.640;2023-04-25T09:24:14;6.65;;;2.05;;
46086;SDS011;31824;49.648;8.640;2023-04-25T09:27:19;3.70;;;1.45;;
46086;SDS011;31824;49.648;8.640;2023-04-25T09:30:30;4.10;;;1.70;;
46086;SDS011;31824;49.648;8.640;2023-04-25T09:33:45;5.97;;;2.40;;
46086;SDS011;31824;49.648;8.640;2023-04-25T09:36:48;4.15;;;1.65;;
46086;SDS011;31824;49.648;8.640;2023-04-25T09:40:05;8.35;;;2.00;;
46086;SDS011;31824;49.648;8.640;2023-04-25T09:43:23;3.55;;;1.10;;
46086;SDS011;31824;49.648;8.640;2023-04-25T09:46:32;5.72;;;1.67;;
46086;SDS011;31824;49.648;8.640;2023-04-25T09:49:38;5.57;;;1.42;;
46086;SDS011;31824;49.648;8.640;2023-04-25T09:52:45;6.65;;;1.80;;
46086;SDS011;31824;49.648;8.640;2023-04-25T09:55:54;2.90;;;1.30;;
46086;SDS011;31824;49.648;8.640;2023-04-25T09:58:59;4.20;;;1.52;;
46086;SDS011;31824;49.648;8.640;2023-04-25T10:02:01;4.50;;;1.42;;
46086;SDS011;31824;49.648;8.640;2023-04-25T10:05:10;4.57;;;1.30;;
46086;SDS011;31824;49.648;8.640;2023-04-25T10:08:14;2.97;;;1.30;;
46086;SDS011;31824;49.648;8.640;2023-04-25T10:11:17;6.47;;;1.30;;
46086;SDS011;31824;49.648;8.640;2023-04-25T10:14:25;2.63;;;1.00;;
46086;SDS011;31824;49.648;8.640;2023-04-25T10:17:28;2.38;;;1.02;;
46086;SDS011;31824;49.648;8.640;2023-04-25T10:20:30;4.38;;;1.30;;
46086;SDS011;31824;49.648;8.640;2023-04-25T10:23:33;4.20;;;1.25;;
46086;SDS011;31824;49.648;8.640;2023-04-25T10:26:36;3.88;;;1.00;;
46086;SDS011;31824;49.648;8.640;2023-04-25T10:29:39;2.20;;;1.02;;
46086;SDS011;31824;49.648;8.640;2023-04-25T10:32:44;3.50;;;1.35;;
46086;SDS011;31824;49.648;8.640;2023-04-25T10:35:46;2.08;;;0.75;;
46086;SDS011;31824;49.648;8.640;2023-04-25T10:38:49;3.42;;;1.30;;
46086;SDS011;31824;49.648;8.640;2023-04-25T10:41:52;2.58;;;0.90;;
46086;SDS011;31824;49.648;8.640;2023-04-25T10:48:08;2.22;;;1.00;;
46086;SDS011;31824;49.648;8.640;2023-04-25T10:51:26;2.80;;;0.73;;
46086;SDS011;31824;49.648;8.640;2023-04-25T10:54:41;3.90;;;1.13;;
46086;SDS011;31824;49.648;8.640;2023-04-25T10:57:44;2.60;;;0.95;;
46086;SDS011;31824;49.648;8.640;2023-04-25T11:00:52;2.80;;;0.77;;
46086;SDS011;31824;49.648;8.640;2023-04-25T11:03:58;3.38;;;1.20;;
46086;SDS011;31824;49.648;8.640;2023-04-25T11:07:02;1.33;;;0.50;;
46086;SDS011;31824;49.648;8.640;2023-04-25T11:10:09;2.83;;;0.73;;
46086;SDS011;31824;49.648;8.640;2023-04-25T11:13:11;3.03;;;1.00;;
46086;SDS011;31824;49.648;8.640;2023-04-25T11:16:14;2.45;;;0.88;;
46086;SDS011;31824;49.648;8.640;2023-04-25T11:19:19;3.75;;;1.25;;
46086;SDS011;31824;49.648;8.640;2023-04-25T11:22:20;2.25;;;0.95;;
46086;SDS011;31824;49.648;8.640;2023-04-25T11:25:23;3.80;;;0.88;;
46086;SDS011;31824;49.648;8.640;2023-04-25T11:28:27;2.13;;;1.05;;
46086;SDS011;31824;49.648;8.640;2023-04-25T11:31:30;2.28;;;1.20;;
46086;SDS011;31824;49.648;8.640;2023-04-25T11:34:33;3.33;;;0.82;;
46086;SDS011;31824;49.648;8.640;2023-04-25T11:37:35;0.52;;;0.13;;
46086;SDS011;31824;49.648;8.640;2023-04-25T11:40:38;2.42;;;0.63;;
46086;SDS011;31824;49.648;8.640;2023-04-25T11:43:39;7.40;;;1.27;;
46086;SDS011;31824;49.648;8.640;2023-04-25T11:46:45;4.57;;;1.13;;
46086;SDS011;31824;49.648;8.640;2023-04-25T11:49:48;3.35;;;1.08;;
46086;SDS011;31824;49.648;8.640;2023-04-25T11:52:50;2.22;;;0.90;;
46086;SDS011;31824;49.648;8.640;2023-04-25T11:55:53;2.05;;;0.55;;
46086;SDS011;31824;49.648;8.640;2023-04-25T11:58:56;3.10;;;1.13;;
46086;SDS011;31824;49.648;8.640;2023-04-25T12:02:00;3.42;;;1.33;;
46086;SDS011;31824;49.648;8.640;2023-04-25T12:05:05;3.90;;;0.90;;
46086;SDS011;31824;49.648;8.640;2023-04-25T12:08:29;3.72;;;1.30;;
46086;SDS011;31824;49.648;8.640;2023-04-25T12:11:31;5.38;;;1.27;;
46086;SDS011;31824;49.648;8.640;2023-04-25T12:14:34;3.22;;;0.98;;
46086;SDS011;31824;49.648;8.640;2023-04-25T12:17:38;3.60;;;1.60;;
46086;SDS011;31824;49.648;8.640;2023-04-25T12:20:41;3.80;;;1.17;;
46086;SDS011;31824;49.648;8.640;2023-04-25T12:23:43;3.78;;;0.90;;
46086;SDS011;31824;49.648;8.640;2023-04-25T12:26:51;2.47;;;1.10;;
46086;SDS011;31824;49.648;8.640;2023-04-25T12:29:54;3.15;;;1.08;;
46086;SDS011;31824;49.648;8.640;2023-04-25T12:32:59;2.53;;;1.27;;
46086;SDS011;31824;49.648;8.640;2023-04-25T12:36:01;2.28;;;0.90;;
46086;SDS011;31824;49.648;8.640;2023-04-25T12:39:15;3.65;;;1.25;;
46086;SDS011;31824;49.648;8.640;2023-04-25T12:42:18;3.15;;;1.20;;
46086;SDS011;31824;49.648;8.640;2023-04-25T12:45:19;5.45;;;1.05;;
46086;SDS011;31824;49.648;8.640;2023-04-25T12:48:23;4.45;;;1.55;;
46086;SDS011;31824;49.648;8.640;2023-04-25T12:51:25;3.35;;;1.52;;
46086;SDS011;31824;49.648;8.640;2023-04-25T12:54:29;2.75;;;1.35;;
46086;SDS011;31824;49.648;8.640;2023-04-25T12:57:31;3.03;;;1.48;;
46086;SDS011;31824;49.648;8.640;2023-04-25T13:00:32;5.43;;;1.55;;
46086;SDS011;31824;49.648;8.640;2023-04-25T13:06:12;2.70;;;1.20;;
46086;SDS011;31824;49.648;8.640;2023-04-25T13:09:14;2.75;;;0.90;;
46086;SDS011;31824;49.648;8.640;2023-04-25T13:12:17;4.80;;;1.13;;
46086;SDS011;31824;49.648;8.640;2023-04-25T13:15:38;7.35;;;2.03;;
46086;SDS011;31824;49.648;8.640;2023-04-25T13:18:40;2.97;;;1.30;;
46086;SDS011;31824;49.648;8.640;2023-04-25T13:21:44;3.63;;;1.52;;
46086;SDS011;31824;49.648;8.640;2023-04-25T13:24:46;2.75;;;1.30;;
46086;SDS011;31824;49.648;8.640;2023-04-25T13:27:48;3.65;;;1.50;;
46086;SDS011;31824;49.648;8.640;2023-04-25T13:30:50;6.10;;;1.67;;
46086;SDS011;31824;49.648;8.640;2023-04-25T13:33:52;4.30;;;1.45;;
46086;SDS011;31824;49.648;8.640;2023-04-25T13:36:56;3.83;;;1.10;;
46086;SDS011;31824;49.648;8.640;2023-04-25T13:39:58;3.88;;;1.65;;
46086;SDS011;31824;49.648;8.640;2023-04-25T13:43:02;2.78;;;0.75;;
46086;SDS011;31824;49.648;8.640;2023-04-25T13:46:04;3.72;;;1.42;;
46086;SDS011;31824;49.648;8.640;2023-04-25T13:49:06;2.90;;;1.23;;
46086;SDS011;31824;49.648;8.640;2023-04-25T13:52:15;3.85;;;1.45;;
46086;SDS011;31824;49.648;8.640;2023-04-25T13:55:17;5.50;;;1.70;;
46086;SDS011;31824;49.648;8.640;2023-04-25T13:58:19;6.70;;;1.48;;
46086;SDS011;31824;49.648;8.640;2023-04-25T14:01:21;3.58;;;1.27;;
46086;SDS011;31824;49.648;8.640;2023-04-25T14:04:23;6.38;;;1.67;;
46086;SDS011;31824;49.648;8.640;2023-04-25T14:07:27;3.70;;;1.40;;
46086;SDS011;31824;49.648;8.640;2023-04-25T14:10:29;4.68;;;1.13;;
46086;SDS011;31824;49.648;8.640;2023-04-25T14:13:31;1.98;;;1.10;;
46086;SDS011;31824;49.648;8.640;2023-04-25T14:16:33;5.50;;;1.55;;
46086;SDS011;31824;49.648;8.640;2023-04-25T14:19:35;6.85;;;1.90;;
46086;SDS011;31824;49.648;8.640;2023-04-25T14:22:41;2.40;;;0.70;;
46086;SDS011;31824;49.648;8.640;2023-04-25T14:25:45;4.03;;;1.13;;
46086;SDS011;31824;49.648;8.640;2023-04-25T14:28:46;2.13;;;0.98;;
46086;SDS011;31824;49.648;8.640;2023-04-25T14:31:48;3.90;;;0.90;;
46086;SDS011;31824;49.648;8.640;2023-04-25T14:34:50;2.92;;;1.30;;
46086;SDS011;31824;49.648;8.640;2023-04-25T14:37:54;2.40;;;1.02;;
46086;SDS011;31824;49.648;8.640;2023-04-25T14:40:55;5.00;;;1.20;;
46086;SDS011;31824;49.648;8.640;2023-04-25T14:43:57;3.47;;;1.40;;
46086;SDS011;31824;49.648;8.640;2023-04-25T14:46:59;3.97;;;1.08;;
46086;SDS011;31824;49.648;8.640;2023-04-25T14:50:01;1.80;;;1.00;;
46086;SDS011;31824;49.648;8.640;2023-04-25T14:53:04;2.78;;;1.00;;
46086;SDS011;31824;49.648;8.640;2023-04-25T14:56:07;2.70;;;1.13;;
46086;SDS011;31824;49.648;8.640;2023-04-25T14:59:10;3.35;;;1.05;;
46086;SDS011;31824;49.648;8.640;2023-04-25T15:02:11;4.68;;;1.13;;
46086;SDS011;31824;49.648;8.640;2023-04-25T15:05:13;1.10;;;0.65;;
46086;SDS011;31824;49.648;8.640;2023-04-25T15:08:16;3.72;;;1.13;;
46086;SDS011;31824;49.648;8.640;2023-04-25T15:11:18;4.93;;;1.67;;
46086;SDS011;31824;49.648;8.640;2023-04-25T15:14:21;5.22;;;1.20;;
46086;SDS011;31824;49.648;8.640;2023-04-25T15:17:23;4.93;;;1.45;;
46086;SDS011;31824;49.648;8.640;2023-04-25T15:20:25;1.77;;;1.00;;
46086;SDS011;31824;49.648;8.640;2023-04-25T15:23:29;2.80;;;1.30;;
46086;SDS011;31824;49.648;8.640;2023-04-25T15:26:31;3.90;;;1.33;;
46086;SDS011;31824;49.648;8.640;2023-04-25T15:29:33;2.30;;;0.82;;
46086;SDS011;31824;49.648;8.640;2023-04-25T15:32:35;4.07;;;1.40;;
46086;SDS011;31824;49.648;8.640;2023-04-25T15:35:36;5.15;;;1.25;;
46086;SDS011;31824;49.648;8.640;2023-04-25T15:38:40;3.90;;;1.02;;
46086;SDS011;31824;49.648;8.640;2023-04-25T15:41:42;1.40;;;0.70;;
46086;SDS011;31824;49.648;8.640;2023-04-25T15:44:44;2.97;;;0.88;;
46086;SDS011;31824;49.648;8.640;2023-04-25T15:47:45;3.30;;;1.00;;
46086;SDS011;31824;49.648;8.640;2023-04-25T15:50:47;2.97;;;0.88;;
46086;SDS011;31824;49.648;8.640;2023-04-25T15:53:50;3.60;;;1.20;;
46086;SDS011;31824;49.648;8.640;2023-04-25T15:56:52;4.20;;;0.95;;
46086;SDS011;31824;49.648;8.640;2023-04-25T15:59:54;5.18;;;1.08;;
46086;SDS011;31824;49.648;8.640;2023-04-25T16:02:57;1.33;;;0.60;;
46086;SDS011;31824;49.648;8.640;2023-04-25T16:05:59;3.17;;;0.80;;
46086;SDS011;31824;49.648;8.640;2023-04-25T16:09:02;3.92;;;0.80;;
46086;SDS011;31824;49.648;8.640;2023-04-25T16:12:12;4.07;;;0.90;;
46086;SDS011;31824;49.648;8.640;2023-04-25T16:15:14;1.90;;;0.93;;
46086;SDS011;31824;49.648;8.640;2023-04-25T16:18:16;3.15;;;0.98;;
46086;SDS011;31824;49.648;8.640;2023-04-25T16:21:18;5.80;;;0.90;;
46086;SDS011;31824;49.648;8.640;2023-04-25T16:24:21;3.08;;;1.00;;
46086;SDS011;31824;49.648;8.640;2023-04-25T16:27:23;1.45;;;0.63;;
46086;SDS011;31824;49.648;8.640;2023-04-25T16:30:26;5.40;;;0.85;;
46086;SDS011;31824;49.648;8.640;2023-04-25T16:33:27;1.63;;;0.60;;
46086;SDS011;31824;49.648;8.640;2023-04-25T16:36:30;2.58;;;0.70;;
46086;SDS011;31824;49.648;8.640;2023-04-25T16:39:35;2.90;;;0.60;;
46086;SDS011;31824;49.648;8.640;2023-04-25T16:42:37;2.92;;;1.00;;
46086;SDS011;31824;49.648;8.640;2023-04-25T16:45:39;2.17;;;0.90;;
46086;SDS011;31824;49.648;8.640;2023-04-25T16:48:40;3.88;;;0.82;;
46086;SDS011;31824;49.648;8.640;2023-04-25T16:51:42;3.67;;;1.25;;
46086;SDS011;31824;49.648;8.640;2023-04-25T16:54:45;1.05;;;0.65;;
46086;SDS011;31824;49.648;8.640;2023-04-25T16:57:47;3.08;;;0.85;;
46086;SDS011;31824;49.648;8.640;2023-04-25T17:00:49;1.90;;;0.90;;
46086;SDS011;31824;49.648;8.640;2023-04-25T17:03:52;3.40;;;0.73;;
46086;SDS011;31824;49.648;8.640;2023-04-25T17:06:54;3.75;;;0.90;;
46086;SDS011;31824;49.648;8.640;2023-04-25T17:09:58;6.30;;;0.73;;
46086;SDS011;31824;49.648;8.640;2023-04-25T17:12:59;1.52;;;0.77;;
46086;SDS011;31824;49.648;8.640;2023-04-25T17:16:02;2.03;;;0.90;;
46086;SDS011;31824;49.648;8.640;2023-04-25T17:19:04;1.52;;;0.68;;
46086;SDS011;31824;49.648;8.640;2023-04-25T17:22:06;3.38;;;1.00;;
46086;SDS011;31824;49.648;8.640;2023-04-25T17:25:10;3.38;;;1.00;;
46086;SDS011;31824;49.648;8.640;2023-04-25T17:28:11;3.45;;;0.80;;
46086;SDS011;31824;49.648;8.640;2023-04-25T17:31:13;1.23;;;0.50;;
46086;SDS011;31824;49.648;8.640;2023-04-25T17:34:16;2.60;;;1.08;;
46086;SDS011;31824;49.648;8.640;2023-04-25T17:37:18;3.63;;;1.48;;
46086;SDS011;31824;49.648;8.640;2023-04-25T17:40:21;3.55;;;0.85;;
46086;SDS011;31824;49.648;8.640;2023-04-25T17:43:24;6.18;;;1.02;;
46086;SDS011;31824;49.648;8.640;2023-04-25T17:46:26;3.17;;;0.70;;
46086;SDS011;31824;49.648;8.640;2023-04-25T17:49:30;1.65;;;0.60;;
46086;SDS011;31824;49.648;8.640;2023-04-25T17:52:32;2.80;;;0.70;;
46086;SDS011;31824;49.648;8.640;2023-04-25T17:55:36;1.77;;;0.63;;
46086;SDS011;31824;49.648;8.640;2023-04-25T17:58:38;3.45;;;0.80;;
46086;SDS011;31824;49.648;8.640;2023-04-25T18:01:40;5.10;;;1.23;;
46086;SDS011;31824;49.648;8.640;2023-04-25T18:04:48;2.63;;;1.10;;
46086;SDS011;31824;49.648;8.640;2023-04-25T18:07:49;1.42;;;0.60;;
46086;SDS011;31824;49.648;8.640;2023-04-25T18:10:52;5.85;;;0.93;;
46086;SDS011;31824;49.648;8.640;2023-04-25T18:13:54;2.28;;;0.95;;
46086;SDS011;31824;49.648;8.640;2023-04-25T18:16:56;2.20;;;0.90;;
46086;SDS011;31824;49.648;8.640;2023-04-25T18:19:58;2.90;;;0.40;;
46086;SDS011;31824;49.648;8.640;2023-04-25T18:23:02;2.95;;;0.68;;
46086;SDS011;31824;49.648;8.640;2023-04-25T18:26:05;2.55;;;0.80;;
46086;SDS011;31824;49.648;8.640;2023-04-25T18:29:08;3.70;;;1.08;;
46086;SDS011;31824;49.648;8.640;2023-04-25T18:32:14;4.13;;;0.68;;
46086;SDS011;31824;49.648;8.640;2023-04-25T18:35:16;2.72;;;0.88;;
46086;SDS011;31824;49.648;8.640;2023-04-25T18:38:18;4.25;;;1.30;;
46086;SDS011;31824;49.648;8.640;2023-04-25T18:44:56;3.20;;;1.15;;
46086;SDS011;31824;49.648;8.640;2023-04-25T18:47:58;1.42;;;0.70;;